METAR Data
IDs: Format: Raw Decoded Include TAF

Data at: 0958 UTC 13 Aug 2022

LJLJ 130930Z 30009KT 9999 -RA FEW013 SCT055 BKN085 15/13 Q1016 NOSIG